sensor_id;sensor_type;location;lat;lon;timestamp;pressure;altitude;pressure_sealevel;temperature;humidity
23361;BME280;11852;50.082;18.554;2023-02-14T00:01:06;100409.0;;;4.64;87.43
23361;BME280;11852;50.082;18.554;2023-02-14T00:02:12;100414.0;;;4.65;87.31
23361;BME280;11852;50.082;18.554;2023-02-14T00:03:21;100415.5;;;4.74;87.15
23361;BME280;11852;50.082;18.554;2023-02-14T00:04:37;100415.5;;;4.72;87.08
23361;BME280;11852;50.082;18.554;2023-02-14T00:05:35;100409.5;;;4.78;86.94
23361;BME280;11852;50.082;18.554;2023-02-14T00:06:42;100407.5;;;4.78;86.89
23361;BME280;11852;50.082;18.554;2023-02-14T00:07:52;100407.0;;;4.77;86.93
23361;BME280;11852;50.082;18.554;2023-02-14T00:09:00;100405.0;;;4.69;87.06
23361;BME280;11852;50.082;18.554;2023-02-14T00:10:09;100404.0;;;4.72;87.0
23361;BME280;11852;50.082;18.554;2023-02-14T00:11:16;100403.5;;;4.66;87.05
23361;BME280;11852;50.082;18.554;2023-02-14T00:12:24;100404.0;;;4.77;86.76
23361;BME280;11852;50.082;18.554;2023-02-14T00:13:31;100402.0;;;4.78;86.76
23361;BME280;11852;50.082;18.554;2023-02-14T00:14:43;100400.5;;;4.57;87.42
23361;BME280;11852;50.082;18.554;2023-02-14T00:15:50;100400.5;;;4.5;87.49
23361;BME280;11852;50.082;18.554;2023-02-14T00:16:57;100404.0;;;4.56;87.37
23361;BME280;11852;50.082;18.554;2023-02-14T00:18:05;100401.5;;;4.51;87.63
23361;BME280;11852;50.082;18.554;2023-02-14T00:19:14;100402.5;;;4.63;87.28
23361;BME280;11852;50.082;18.554;2023-02-14T00:20:21;100404.51;;;4.7;87.08
23361;BME280;11852;50.082;18.554;2023-02-14T00:21:27;100407.0;;;4.65;87.4
23361;BME280;11852;50.082;18.554;2023-02-14T00:22:34;100413.0;;;4.68;87.06
23361;BME280;11852;50.082;18.554;2023-02-14T00:23:40;100408.5;;;4.64;87.21
23361;BME280;11852;50.082;18.554;2023-02-14T00:25:59;100414.0;;;4.68;87.13
23361;BME280;11852;50.082;18.554;2023-02-14T00:27:07;100412.5;;;4.55;87.44
23361;BME280;11852;50.082;18.554;2023-02-14T00:28:16;100411.5;;;4.72;87.04
23361;BME280;11852;50.082;18.554;2023-02-14T00:29:26;100413.0;;;4.68;87.22
23361;BME280;11852;50.082;18.554;2023-02-14T00:30:33;100413.5;;;4.78;87.03
23361;BME280;11852;50.082;18.554;2023-02-14T00:31:39;100413.0;;;4.83;86.91
23361;BME280;11852;50.082;18.554;2023-02-14T00:32:46;100414.0;;;4.76;86.99
23361;BME280;11852;50.082;18.554;2023-02-14T00:33:53;100414.5;;;4.68;87.2
23361;BME280;11852;50.082;18.554;2023-02-14T00:35:00;100412.0;;;4.64;87.35
23361;BME280;11852;50.082;18.554;2023-02-14T00:36:08;100415.5;;;4.64;87.35
23361;BME280;11852;50.082;18.554;2023-02-14T00:37:15;100411.0;;;4.51;87.79
23361;BME280;11852;50.082;18.554;2023-02-14T00:38:22;100416.5;;;4.74;87.08
23361;BME280;11852;50.082;18.554;2023-02-14T00:39:30;100414.0;;;4.78;87.07
23361;BME280;11852;50.082;18.554;2023-02-14T00:40:37;100413.5;;;4.87;86.88
23361;BME280;11852;50.082;18.554;2023-02-14T00:41:44;100413.5;;;4.66;87.38
23361;BME280;11852;50.082;18.554;2023-02-14T00:42:52;100416.5;;;4.76;87.01
23361;BME280;11852;50.082;18.554;2023-02-14T00:43:59;100418.0;;;4.6;87.48
23361;BME280;11852;50.082;18.554;2023-02-14T00:45:06;100418.0;;;4.74;87.04
23361;BME280;11852;50.082;18.554;2023-02-14T00:46:14;100418.5;;;4.66;87.38
23361;BME280;11852;50.082;18.554;2023-02-14T00:47:22;100419.49;;;4.63;87.43
23361;BME280;11852;50.082;18.554;2023-02-14T00:48:29;100421.0;;;4.76;87.15
23361;BME280;11852;50.082;18.554;2023-02-14T00:49:36;100421.5;;;4.7;87.3
23361;BME280;11852;50.082;18.554;2023-02-14T00:50:47;100425.5;;;4.7;87.13
23361;BME280;11852;50.082;18.554;2023-02-14T00:51:55;100423.5;;;4.82;86.79
23361;BME280;11852;50.082;18.554;2023-02-14T00:53:06;100424.0;;;4.75;86.99
23361;BME280;11852;50.082;18.554;2023-02-14T00:54:10;100420.49;;;4.66;87.19
23361;BME280;11852;50.082;18.554;2023-02-14T00:55:18;100417.0;;;4.78;86.8
23361;BME280;11852;50.082;18.554;2023-02-14T00:56:24;100416.5;;;4.55;87.5
23361;BME280;11852;50.082;18.554;2023-02-14T00:57:32;100412.5;;;4.7;86.99
23361;BME280;11852;50.082;18.554;2023-02-14T00:58:40;100411.5;;;4.8;86.79
23361;BME280;11852;50.082;18.554;2023-02-14T00:59:48;100410.5;;;4.89;86.63
23361;BME280;11852;50.082;18.554;2023-02-14T01:00:56;100412.0;;;4.73;87.2
23361;BME280;11852;50.082;18.554;2023-02-14T01:02:05;100413.5;;;4.7;87.0
23361;BME280;11852;50.082;18.554;2023-02-14T01:03:12;100410.0;;;4.78;86.79
23361;BME280;11852;50.082;18.554;2023-02-14T01:04:20;100409.0;;;4.71;87.15
23361;BME280;11852;50.082;18.554;2023-02-14T01:05:28;100407.5;;;4.81;86.71
23361;BME280;11852;50.082;18.554;2023-02-14T01:06:35;100406.5;;;4.65;87.22
23361;BME280;11852;50.082;18.554;2023-02-14T01:07:45;100409.0;;;4.89;86.55
23361;BME280;11852;50.082;18.554;2023-02-14T01:08:52;100410.0;;;4.86;86.62
23361;BME280;11852;50.082;18.554;2023-02-14T01:09:59;100411.5;;;4.91;86.49
23361;BME280;11852;50.082;18.554;2023-02-14T01:11:17;100411.5;;;4.98;86.37
23361;BME280;11852;50.082;18.554;2023-02-14T01:12:14;100414.5;;;4.92;86.46
23361;BME280;11852;50.082;18.554;2023-02-14T01:13:23;100412.5;;;4.96;86.31
23361;BME280;11852;50.082;18.554;2023-02-14T01:14:30;100409.0;;;4.92;86.38
23361;BME280;11852;50.082;18.554;2023-02-14T01:15:38;100409.5;;;4.73;87.03
23361;BME280;11852;50.082;18.554;2023-02-14T01:16:44;100409.5;;;4.74;86.85
23361;BME280;11852;50.082;18.554;2023-02-14T01:17:51;100411.0;;;4.68;87.04
23361;BME280;11852;50.082;18.554;2023-02-14T01:18:59;100412.0;;;4.68;87.01
23361;BME280;11852;50.082;18.554;2023-02-14T01:20:05;100409.5;;;4.76;86.75
23361;BME280;11852;50.082;18.554;2023-02-14T01:21:16;100412.5;;;4.86;86.51
23361;BME280;11852;50.082;18.554;2023-02-14T01:22:21;100413.0;;;4.85;86.54
23361;BME280;11852;50.082;18.554;2023-02-14T01:24:36;100416.5;;;4.77;86.67
23361;BME280;11852;50.082;18.554;2023-02-14T01:25:43;100414.5;;;4.79;86.56
23361;BME280;11852;50.082;18.554;2023-02-14T01:26:50;100414.0;;;4.6;86.53
23361;BME280;11852;50.082;18.554;2023-02-14T01:27:58;100417.0;;;4.72;86.74
23361;BME280;11852;50.082;18.554;2023-02-14T01:29:05;100413.0;;;4.71;86.64
23361;BME280;11852;50.082;18.554;2023-02-14T01:30:12;100413.0;;;4.68;86.82
23361;BME280;11852;50.082;18.554;2023-02-14T01:31:20;100411.5;;;4.62;86.84
23361;BME280;11852;50.082;18.554;2023-02-14T01:32:30;100409.0;;;4.74;86.58
23361;BME280;11852;50.082;18.554;2023-02-14T01:33:38;100406.5;;;4.82;86.43
23361;BME280;11852;50.082;18.554;2023-02-14T01:34:44;100410.5;;;4.89;86.29
23361;BME280;11852;50.082;18.554;2023-02-14T01:35:51;100408.5;;;4.89;86.31
23361;BME280;11852;50.082;18.554;2023-02-14T01:37:00;100404.51;;;4.93;86.22
23361;BME280;11852;50.082;18.554;2023-02-14T01:38:07;100406.0;;;4.97;86.15
23361;BME280;11852;50.082;18.554;2023-02-14T01:39:15;100405.5;;;4.99;86.1
23361;BME280;11852;50.082;18.554;2023-02-14T01:40:22;100406.5;;;5.0;86.11
23361;BME280;11852;50.082;18.554;2023-02-14T01:41:30;100405.0;;;4.99;86.1
23361;BME280;11852;50.082;18.554;2023-02-14T01:42:37;100402.0;;;4.99;86.04
23361;BME280;11852;50.082;18.554;2023-02-14T01:43:50;100404.0;;;4.98;86.04
23361;BME280;11852;50.082;18.554;2023-02-14T01:45:02;100403.5;;;4.85;86.18
23361;BME280;11852;50.082;18.554;2023-02-14T01:46:07;100397.0;;;4.93;86.06
23361;BME280;11852;50.082;18.554;2023-02-14T01:47:15;100399.5;;;4.96;85.99
23361;BME280;11852;50.082;18.554;2023-02-14T01:48:22;100399.5;;;4.99;85.96
23361;BME280;11852;50.082;18.554;2023-02-14T01:49:34;100398.5;;;4.93;86.03
23361;BME280;11852;50.082;18.554;2023-02-14T01:50:40;100395.49;;;4.93;86.0
23361;BME280;11852;50.082;18.554;2023-02-14T01:51:52;100393.0;;;4.91;86.01
23361;BME280;11852;50.082;18.554;2023-02-14T01:52:57;100389.5;;;4.91;85.96
23361;BME280;11852;50.082;18.554;2023-02-14T01:54:04;100392.0;;;4.88;86.08
23361;BME280;11852;50.082;18.554;2023-02-14T01:55:18;100391.0;;;4.9;85.97
23361;BME280;11852;50.082;18.554;2023-02-14T01:56:24;100392.01;;;4.95;85.96
23361;BME280;11852;50.082;18.554;2023-02-14T01:57:41;100391.0;;;4.97;85.97
23361;BME280;11852;50.082;18.554;2023-02-14T01:58:40;100392.5;;;4.98;85.92
23361;BME280;11852;50.082;18.554;2023-02-14T01:59:51;100390.5;;;4.96;85.94
23361;BME280;11852;50.082;18.554;2023-02-14T02:00:56;100391.0;;;4.95;85.88
23361;BME280;11852;50.082;18.554;2023-02-14T02:02:03;100390.0;;;4.87;85.97
23361;BME280;11852;50.082;18.554;2023-02-14T02:03:10;100392.0;;;4.82;86.19
23361;BME280;11852;50.082;18.554;2023-02-14T02:04:23;100390.0;;;4.85;86.04
23361;BME280;11852;50.082;18.554;2023-02-14T02:05:28;100386.0;;;4.86;85.97
23361;BME280;11852;50.082;18.554;2023-02-14T02:07:51;100382.0;;;4.84;85.9
23361;BME280;11852;50.082;18.554;2023-02-14T02:10:14;100378.0;;;4.88;85.88
23361;BME280;11852;50.082;18.554;2023-02-14T02:11:21;100379.0;;;4.83;85.88
23361;BME280;11852;50.082;18.554;2023-02-14T02:12:28;100378.5;;;4.84;85.89
23361;BME280;11852;50.082;18.554;2023-02-14T02:13:35;100378.0;;;4.8;85.93
23361;BME280;11852;50.082;18.554;2023-02-14T02:14:45;100378.5;;;4.8;85.91
23361;BME280;11852;50.082;18.554;2023-02-14T02:24:31;100379.0;;;4.69;86.21
23361;BME280;11852;50.082;18.554;2023-02-14T02:27:23;100380.0;;;4.78;86.09
23361;BME280;11852;50.082;18.554;2023-02-14T02:39:44;100376.5;;;4.77;86.1
23361;BME280;11852;50.082;18.554;2023-02-14T02:46:02;100385.0;;;4.74;86.08
23361;BME280;11852;50.082;18.554;2023-02-14T02:47:15;100383.5;;;4.76;86.04
23361;BME280;11852;50.082;18.554;2023-02-14T02:48:18;100384.0;;;4.78;85.99
23361;BME280;11852;50.082;18.554;2023-02-14T02:50:52;100388.5;;;4.78;85.96
23361;BME280;11852;50.082;18.554;2023-02-14T02:52:10;100387.0;;;4.69;86.04
23361;BME280;11852;50.082;18.554;2023-02-14T02:54:33;100385.5;;;4.7;86.02
23361;BME280;11852;50.082;18.554;2023-02-14T02:55:55;100389.0;;;4.62;86.31
23361;BME280;11852;50.082;18.554;2023-02-14T02:57:00;100383.0;;;4.61;86.29
23361;BME280;11852;50.082;18.554;2023-02-14T02:58:08;100388.5;;;4.61;86.28
23361;BME280;11852;50.082;18.554;2023-02-14T02:59:43;100388.5;;;4.64;86.17
23361;BME280;11852;50.082;18.554;2023-02-14T03:00:34;100388.5;;;4.63;86.19
23361;BME280;11852;50.082;18.554;2023-02-14T03:01:49;100389.0;;;4.64;86.15
23361;BME280;11852;50.082;18.554;2023-02-14T03:03:00;100392.01;;;4.63;86.17
23361;BME280;11852;50.082;18.554;2023-02-14T03:04:12;100394.99;;;4.57;86.33
23361;BME280;11852;50.082;18.554;2023-02-14T03:05:18;100391.5;;;4.61;86.28
23361;BME280;11852;50.082;18.554;2023-02-14T03:06:29;100394.0;;;4.65;86.13
23361;BME280;11852;50.082;18.554;2023-02-14T03:07:37;100396.0;;;4.7;86.04
23361;BME280;11852;50.082;18.554;2023-02-14T03:08:44;100395.0;;;4.7;86.06
23361;BME280;11852;50.082;18.554;2023-02-14T03:09:57;100394.0;;;4.72;86.01
23361;BME280;11852;50.082;18.554;2023-02-14T03:11:03;100396.0;;;4.54;86.53
23361;BME280;11852;50.082;18.554;2023-02-14T03:13:36;100391.5;;;4.64;86.26
23361;BME280;11852;50.082;18.554;2023-02-14T03:16:07;100387.0;;;4.53;86.28
23361;BME280;11852;50.082;18.554;2023-02-14T03:19:57;100391.5;;;4.56;86.1
23361;BME280;11852;50.082;18.554;2023-02-14T03:25:59;100391.0;;;4.63;86.06
23361;BME280;11852;50.082;18.554;2023-02-14T03:27:09;100390.5;;;4.6;85.99
23361;BME280;11852;50.082;18.554;2023-02-14T03:29:35;100382.99;;;4.56;86.13
23361;BME280;11852;50.082;18.554;2023-02-14T03:30:41;100381.0;;;4.47;86.35
23361;BME280;11852;50.082;18.554;2023-02-14T03:31:53;100380.0;;;4.52;86.06
23361;BME280;11852;50.082;18.554;2023-02-14T03:33:00;100375.5;;;4.53;86.07
23361;BME280;11852;50.082;18.554;2023-02-14T03:35:39;100378.5;;;4.59;85.89
23361;BME280;11852;50.082;18.554;2023-02-14T03:36:34;100380.5;;;4.59;85.87
23361;BME280;11852;50.082;18.554;2023-02-14T03:37:48;100379.0;;;4.61;85.84
23361;BME280;11852;50.082;18.554;2023-02-14T03:40:08;100383.5;;;4.61;85.83
23361;BME280;11852;50.082;18.554;2023-02-14T03:41:18;100383.0;;;4.62;85.78
23361;BME280;11852;50.082;18.554;2023-02-14T03:42:28;100384.5;;;4.63;85.74
23361;BME280;11852;50.082;18.554;2023-02-14T03:45:50;100383.0;;;4.41;86.1
23361;BME280;11852;50.082;18.554;2023-02-14T03:46:57;100380.0;;;4.48;85.87
23361;BME280;11852;50.082;18.554;2023-02-14T03:48:05;100381.5;;;4.57;85.78
23361;BME280;11852;50.082;18.554;2023-02-14T03:49:12;100381.0;;;4.53;85.9
23361;BME280;11852;50.082;18.554;2023-02-14T03:50:19;100382.99;;;4.53;85.87
23361;BME280;11852;50.082;18.554;2023-02-14T03:51:26;100382.0;;;4.59;85.76
23361;BME280;11852;50.082;18.554;2023-02-14T03:52:33;100386.5;;;4.61;85.67
23361;BME280;11852;50.082;18.554;2023-02-14T03:53:43;100387.5;;;4.59;85.68
23361;BME280;11852;50.082;18.554;2023-02-14T03:54:50;100392.01;;;4.55;85.81
23361;BME280;11852;50.082;18.554;2023-02-14T03:57:25;100387.5;;;4.39;85.82
23361;BME280;11852;50.082;18.554;2023-02-14T03:58:23;100383.5;;;4.47;85.67
23361;BME280;11852;50.082;18.554;2023-02-14T03:59:27;100383.0;;;4.39;85.9
23361;BME280;11852;50.082;18.554;2023-02-14T04:00:36;100385.0;;;4.4;85.9
23361;BME280;11852;50.082;18.554;2023-02-14T04:02:26;100383.5;;;4.45;85.76
23361;BME280;11852;50.082;18.554;2023-02-14T04:02:54;100387.5;;;4.32;86.04
23361;BME280;11852;50.082;18.554;2023-02-14T04:04:00;100387.5;;;4.42;85.85
23361;BME280;11852;50.082;18.554;2023-02-14T04:05:18;100389.0;;;4.38;86.05
23361;BME280;11852;50.082;18.554;2023-02-14T04:06:18;100389.0;;;4.47;85.82
23361;BME280;11852;50.082;18.554;2023-02-14T04:07:24;100389.0;;;4.5;85.84
23361;BME280;11852;50.082;18.554;2023-02-14T04:08:31;100388.5;;;4.55;85.74
23361;BME280;11852;50.082;18.554;2023-02-14T04:09:41;100392.0;;;4.58;85.65
23361;BME280;11852;50.082;18.554;2023-02-14T04:10:48;100392.01;;;4.6;85.65
23361;BME280;11852;50.082;18.554;2023-02-14T04:11:54;100391.0;;;4.59;85.67
23361;BME280;11852;50.082;18.554;2023-02-14T04:13:03;100391.0;;;4.63;85.55
23361;BME280;11852;50.082;18.554;2023-02-14T04:14:10;100389.5;;;4.64;85.56
23361;BME280;11852;50.082;18.554;2023-02-14T04:15:19;100389.0;;;4.63;85.53
23361;BME280;11852;50.082;18.554;2023-02-14T04:16:27;100386.0;;;4.55;85.5
23361;BME280;11852;50.082;18.554;2023-02-14T04:17:38;100387.5;;;4.59;85.4
23361;BME280;11852;50.082;18.554;2023-02-14T04:18:51;100388.5;;;4.62;85.38
23361;BME280;11852;50.082;18.554;2023-02-14T04:19:58;100382.5;;;4.64;85.37
23361;BME280;11852;50.082;18.554;2023-02-14T04:21:05;100384.0;;;4.63;85.35
23361;BME280;11852;50.082;18.554;2023-02-14T04:22:11;100381.5;;;4.63;85.35
23361;BME280;11852;50.082;18.554;2023-02-14T04:23:18;100378.5;;;4.64;85.34
23361;BME280;11852;50.082;18.554;2023-02-14T04:24:26;100381.0;;;4.63;85.37
23361;BME280;11852;50.082;18.554;2023-02-14T04:25:33;100378.5;;;4.51;85.45
23361;BME280;11852;50.082;18.554;2023-02-14T04:26:40;100378.5;;;4.57;85.25
23361;BME280;11852;50.082;18.554;2023-02-14T04:27:46;100380.51;;;4.6;85.24
23361;BME280;11852;50.082;18.554;2023-02-14T04:28:54;100380.0;;;4.63;85.24
23361;BME280;11852;50.082;18.554;2023-02-14T04:30:07;100382.49;;;4.61;85.26
23361;BME280;11852;50.082;18.554;2023-02-14T04:31:11;100381.5;;;4.6;85.18
23361;BME280;11852;50.082;18.554;2023-02-14T04:32:19;100381.0;;;4.61;85.15
23361;BME280;11852;50.082;18.554;2023-02-14T04:33:25;100378.0;;;4.63;85.12
23361;BME280;11852;50.082;18.554;2023-02-14T04:34:32;100380.0;;;4.61;85.15
23361;BME280;11852;50.082;18.554;2023-02-14T04:35:39;100381.99;;;4.6;85.15
23361;BME280;11852;50.082;18.554;2023-02-14T04:36:49;100379.5;;;4.59;85.16
23361;BME280;11852;50.082;18.554;2023-02-14T04:37:56;100380.5;;;4.58;85.18
23361;BME280;11852;50.082;18.554;2023-02-14T04:39:04;100381.0;;;4.61;85.1
23361;BME280;11852;50.082;18.554;2023-02-14T04:40:11;100382.0;;;4.47;85.4
23361;BME280;11852;50.082;18.554;2023-02-14T04:41:18;100382.5;;;4.42;85.35
23361;BME280;11852;50.082;18.554;2023-02-14T04:42:29;100381.5;;;4.41;85.38
23361;BME280;11852;50.082;18.554;2023-02-14T04:43:36;100382.0;;;4.47;85.22
23361;BME280;11852;50.082;18.554;2023-02-14T04:44:44;100380.0;;;4.49;85.32
23361;BME280;11852;50.082;18.554;2023-02-14T04:45:51;100380.01;;;4.51;85.22
23361;BME280;11852;50.082;18.554;2023-02-14T04:46:58;100379.0;;;4.51;85.18
23361;BME280;11852;50.082;18.554;2023-02-14T04:48:07;100380.5;;;4.53;85.17
23361;BME280;11852;50.082;18.554;2023-02-14T04:49:14;100383.0;;;4.43;85.28
23361;BME280;11852;50.082;18.554;2023-02-14T04:50:23;100380.5;;;4.44;85.18
23361;BME280;11852;50.082;18.554;2023-02-14T04:51:30;100384.5;;;4.49;85.15
23361;BME280;11852;50.082;18.554;2023-02-14T04:52:39;100386.5;;;4.51;85.13
23361;BME280;11852;50.082;18.554;2023-02-14T04:53:47;100384.5;;;4.48;85.18
23361;BME280;11852;50.082;18.554;2023-02-14T04:54:56;100387.0;;;4.42;85.18
23361;BME280;11852;50.082;18.554;2023-02-14T04:56:03;100384.5;;;4.38;85.2
23361;BME280;11852;50.082;18.554;2023-02-14T04:57:10;100386.0;;;4.42;85.0
23361;BME280;11852;50.082;18.554;2023-02-14T04:58:18;100385.5;;;4.43;85.01
23361;BME280;11852;50.082;18.554;2023-02-14T04:59:25;100387.0;;;4.38;85.19
23361;BME280;11852;50.082;18.554;2023-02-14T05:00:32;100394.0;;;4.32;85.22
23361;BME280;11852;50.082;18.554;2023-02-14T05:01:42;100397.0;;;4.31;85.22
23361;BME280;11852;50.082;18.554;2023-02-14T05:02:53;100398.0;;;4.31;85.25
23361;BME280;11852;50.082;18.554;2023-02-14T05:04:00;100402.0;;;4.32;85.18
23361;BME280;11852;50.082;18.554;2023-02-14T05:05:07;100400.0;;;4.35;85.15
23361;BME280;11852;50.082;18.554;2023-02-14T05:06:16;100404.51;;;4.4;85.04
23361;BME280;11852;50.082;18.554;2023-02-14T05:07:23;100405.0;;;4.43;84.95
23361;BME280;11852;50.082;18.554;2023-02-14T05:08:30;100401.0;;;4.47;84.93
23361;BME280;11852;50.082;18.554;2023-02-14T05:09:38;100402.0;;;4.51;84.96
23361;BME280;11852;50.082;18.554;2023-02-14T05:10:46;100405.0;;;4.47;85.05
23361;BME280;11852;50.082;18.554;2023-02-14T05:11:52;100407.5;;;4.49;85.06
23361;BME280;11852;50.082;18.554;2023-02-14T05:13:01;100404.0;;;4.52;84.99
23361;BME280;11852;50.082;18.554;2023-02-14T05:14:10;100408.5;;;4.52;84.99
23361;BME280;11852;50.082;18.554;2023-02-14T05:15:17;100406.99;;;4.55;84.96
23361;BME280;11852;50.082;18.554;2023-02-14T05:16:25;100404.51;;;4.57;84.96
23361;BME280;11852;50.082;18.554;2023-02-14T05:17:33;100404.0;;;4.57;84.98
23361;BME280;11852;50.082;18.554;2023-02-14T05:18:43;100409.5;;;4.53;84.99
23361;BME280;11852;50.082;18.554;2023-02-14T05:19:51;100408.0;;;4.49;84.91
23361;BME280;11852;50.082;18.554;2023-02-14T05:20:59;100410.0;;;4.3;85.33
23361;BME280;11852;50.082;18.554;2023-02-14T05:22:09;100414.0;;;4.3;85.19
23361;BME280;11852;50.082;18.554;2023-02-14T05:23:16;100415.5;;;4.34;85.15
23361;BME280;11852;50.082;18.554;2023-02-14T05:24:24;100411.0;;;4.3;85.28
23361;BME280;11852;50.082;18.554;2023-02-14T05:25:31;100416.5;;;4.34;85.26
23361;BME280;11852;50.082;18.554;2023-02-14T05:26:38;100419.0;;;4.37;85.21
23361;BME280;11852;50.082;18.554;2023-02-14T05:27:45;100421.0;;;4.43;85.07
23361;BME280;11852;50.082;18.554;2023-02-14T05:28:53;100420.5;;;4.34;85.1
23361;BME280;11852;50.082;18.554;2023-02-14T05:30:01;100424.5;;;4.29;85.22
23361;BME280;11852;50.082;18.554;2023-02-14T05:31:08;100425.0;;;4.35;85.08
23361;BME280;11852;50.082;18.554;2023-02-14T05:32:14;100424.0;;;4.42;84.9
23361;BME280;11852;50.082;18.554;2023-02-14T05:33:24;100426.0;;;4.45;84.9
23361;BME280;11852;50.082;18.554;2023-02-14T05:34:32;100426.5;;;4.5;84.88
23361;BME280;11852;50.082;18.554;2023-02-14T05:35:39;100424.5;;;4.47;84.89
23361;BME280;11852;50.082;18.554;2023-02-14T05:36:46;100424.5;;;4.49;84.87
23361;BME280;11852;50.082;18.554;2023-02-14T05:37:53;100427.0;;;4.49;84.85
23361;BME280;11852;50.082;18.554;2023-02-14T05:39:00;100426.0;;;4.49;84.85
23361;BME280;11852;50.082;18.554;2023-02-14T05:40:08;100431.0;;;4.53;84.77
23361;BME280;11852;50.082;18.554;2023-02-14T05:41:15;100430.5;;;4.49;84.82
23361;BME280;11852;50.082;18.554;2023-02-14T05:42:24;100428.0;;;4.45;84.79
23361;BME280;11852;50.082;18.554;2023-02-14T05:43:32;100429.0;;;4.48;84.76
23361;BME280;11852;50.082;18.554;2023-02-14T05:44:39;100428.5;;;4.49;84.76
23361;BME280;11852;50.082;18.554;2023-02-14T05:45:46;100431.0;;;4.52;84.73
23361;BME280;11852;50.082;18.554;2023-02-14T05:46:54;100431.0;;;4.53;84.72
23361;BME280;11852;50.082;18.554;2023-02-14T05:48:02;100432.5;;;4.54;84.69
23361;BME280;11852;50.082;18.554;2023-02-14T05:49:09;100430.0;;;4.53;84.74
23361;BME280;11852;50.082;18.554;2023-02-14T05:50:17;100430.5;;;4.53;84.69
23361;BME280;11852;50.082;18.554;2023-02-14T05:51:24;100429.0;;;4.5;84.79
23361;BME280;11852;50.082;18.554;2023-02-14T05:52:31;100430.0;;;4.51;84.68
23361;BME280;11852;50.082;18.554;2023-02-14T05:53:39;100429.0;;;4.5;84.69
23361;BME280;11852;50.082;18.554;2023-02-14T05:54:46;100433.5;;;4.51;84.71
23361;BME280;11852;50.082;18.554;2023-02-14T05:55:52;100434.5;;;4.49;84.74
23361;BME280;11852;50.082;18.554;2023-02-14T05:57:00;100438.5;;;4.49;84.71
23361;BME280;11852;50.082;18.554;2023-02-14T05:58:08;100439.5;;;4.51;84.72
23361;BME280;11852;50.082;18.554;2023-02-14T05:59:15;100442.5;;;4.51;84.77
23361;BME280;11852;50.082;18.554;2023-02-14T06:00:22;100440.0;;;4.51;84.81
23361;BME280;11852;50.082;18.554;2023-02-14T06:01:30;100442.0;;;4.51;84.84
23361;BME280;11852;50.082;18.554;2023-02-14T06:02:37;100444.0;;;4.49;84.82
23361;BME280;11852;50.082;18.554;2023-02-14T06:03:45;100442.5;;;4.48;84.85
23361;BME280;11852;50.082;18.554;2023-02-14T06:04:52;100446.5;;;4.49;84.82
23361;BME280;11852;50.082;18.554;2023-02-14T06:05:59;100444.5;;;4.49;84.87
23361;BME280;11852;50.082;18.554;2023-02-14T06:07:10;100441.5;;;4.49;84.88
23361;BME280;11852;50.082;18.554;2023-02-14T06:08:17;100441.5;;;4.48;84.94
23361;BME280;11852;50.082;18.554;2023-02-14T06:09:23;100441.5;;;4.45;84.93
23361;BME280;11852;50.082;18.554;2023-02-14T06:10:30;100444.0;;;4.46;84.83
23361;BME280;11852;50.082;18.554;2023-02-14T06:11:37;100442.5;;;4.47;84.88
23361;BME280;11852;50.082;18.554;2023-02-14T06:12:47;100441.5;;;4.47;84.9
23361;BME280;11852;50.082;18.554;2023-02-14T06:13:54;100438.5;;;4.43;84.93
23361;BME280;11852;50.082;18.554;2023-02-14T06:15:01;100442.51;;;4.43;84.85
23361;BME280;11852;50.082;18.554;2023-02-14T06:16:09;100444.0;;;4.36;84.96
23361;BME280;11852;50.082;18.554;2023-02-14T06:17:17;100444.5;;;4.36;84.97
23361;BME280;11852;50.082;18.554;2023-02-14T06:18:24;100444.49;;;4.39;84.93
23361;BME280;11852;50.082;18.554;2023-02-14T06:19:31;100446.0;;;4.4;84.91
23361;BME280;11852;50.082;18.554;2023-02-14T06:20:39;100445.5;;;4.39;84.93
23361;BME280;11852;50.082;18.554;2023-02-14T06:21:46;100445.49;;;4.39;84.93
23361;BME280;11852;50.082;18.554;2023-02-14T06:22:54;100447.5;;;4.39;84.9
23361;BME280;11852;50.082;18.554;2023-02-14T06:24:01;100452.0;;;4.4;84.87
23361;BME280;11852;50.082;18.554;2023-02-14T06:25:08;100449.5;;;4.38;84.96
23361;BME280;11852;50.082;18.554;2023-02-14T06:26:15;100452.0;;;4.4;84.93
23361;BME280;11852;50.082;18.554;2023-02-14T06:27:22;100453.0;;;4.39;84.88
23361;BME280;11852;50.082;18.554;2023-02-14T06:28:30;100452.5;;;4.39;84.85
23361;BME280;11852;50.082;18.554;2023-02-14T06:29:38;100455.51;;;4.38;84.93
23361;BME280;11852;50.082;18.554;2023-02-14T06:30:45;100456.0;;;4.37;84.96
23361;BME280;11852;50.082;18.554;2023-02-14T06:31:52;100456.0;;;4.38;84.96
23361;BME280;11852;50.082;18.554;2023-02-14T06:33:00;100454.0;;;4.34;84.88
23361;BME280;11852;50.082;18.554;2023-02-14T06:34:08;100454.0;;;4.36;84.8
23361;BME280;11852;50.082;18.554;2023-02-14T06:35:16;100457.99;;;4.38;84.78
23361;BME280;11852;50.082;18.554;2023-02-14T06:36:23;100455.51;;;4.39;84.82
23361;BME280;11852;50.082;18.554;2023-02-14T06:37:32;100455.5;;;4.41;84.84
23361;BME280;11852;50.082;18.554;2023-02-14T06:38:39;100454.0;;;4.41;84.93
23361;BME280;11852;50.082;18.554;2023-02-14T06:39:46;100452.5;;;4.4;84.94
23361;BME280;11852;50.082;18.554;2023-02-14T06:40:53;100450.0;;;4.39;84.93
23361;BME280;11852;50.082;18.554;2023-02-14T06:42:00;100453.0;;;4.39;84.93
23361;BME280;11852;50.082;18.554;2023-02-14T06:43:06;100450.5;;;4.38;84.95
23361;BME280;11852;50.082;18.554;2023-02-14T06:44:15;100452.5;;;4.39;84.93
23361;BME280;11852;50.082;18.554;2023-02-14T06:45:22;100458.5;;;4.39;84.93
23361;BME280;11852;50.082;18.554;2023-02-14T06:46:31;100458.5;;;4.39;84.95
23361;BME280;11852;50.082;18.554;2023-02-14T06:47:41;100454.0;;;4.37;84.98
23361;BME280;11852;50.082;18.554;2023-02-14T06:48:48;100449.5;;;4.37;84.94
23361;BME280;11852;50.082;18.554;2023-02-14T06:49:55;100446.5;;;4.38;84.91
23361;BME280;11852;50.082;18.554;2023-02-14T06:51:02;100447.0;;;4.35;84.9
23361;BME280;11852;50.082;18.554;2023-02-14T06:52:08;100447.0;;;4.34;84.9
23361;BME280;11852;50.082;18.554;2023-02-14T06:53:15;100447.5;;;4.34;84.9